createdAt,value
2022-10-23T00:03:50.285Z,98.69
2022-10-23T00:07:54.664Z,98.41
2022-10-23T00:11:56.592Z,98.58
2022-10-23T00:15:58.399Z,98.47
2022-10-23T00:20:00.745Z,98.71
2022-10-23T00:24:02.949Z,98.87
2022-10-23T00:28:04.902Z,98.87
2022-10-23T00:32:06.744Z,99.12
2022-10-23T00:36:11.456Z,99.39
2022-10-23T00:40:13.286Z,99.21
2022-10-23T00:44:18.097Z,99.03
2022-10-23T00:48:20.629Z,98.91
2022-10-23T00:52:22.469Z,98.81
2022-10-23T00:56:26.355Z,98.66
2022-10-23T01:00:40.460Z,98.51
2022-10-23T01:04:42.611Z,98.41
2022-10-23T01:08:56.506Z,98.39
2022-10-23T01:13:11.023Z,98.27
2022-10-23T01:17:44.511Z,98.22
2022-10-23T01:22:02.516Z,98.25
2022-10-23T01:26:26.204Z,98.10
2022-10-23T01:30:30.263Z,98.20
2022-10-23T01:34:50.330Z,98.22
2022-10-23T01:38:58.201Z,98.28
2022-10-23T01:43:25.401Z,98.22
2022-10-23T01:47:33.684Z,98.04
2022-10-23T01:51:43.759Z,98.27
2022-10-23T01:55:48.141Z,98.21
2022-10-23T02:00:05.951Z,98.12
2022-10-23T02:04:17.008Z,98.07
2022-10-23T02:08:19.012Z,97.93
2022-10-23T02:12:45.072Z,98.02
2022-10-23T02:17:03.376Z,98.07
2022-10-23T02:21:25.139Z,98.14
2022-10-23T02:25:43.877Z,98.06
2022-10-23T02:29:53.143Z,98.05
2022-10-23T02:33:55.529Z,98.22
2022-10-23T02:37:59.742Z,98.25
2022-10-23T02:42:05.338Z,98.21
2022-10-23T02:46:29.657Z,98.31
2022-10-23T02:50:41.333Z,98.28
2022-10-23T02:54:46.800Z,98.25
2022-10-23T02:59:05.533Z,98.28
2022-10-23T03:03:18.913Z,98.31
2022-10-23T03:07:21.527Z,98.35
2022-10-23T03:11:23.467Z,98.43
2022-10-23T03:15:25.346Z,98.29
2022-10-23T03:19:27.259Z,98.32
2022-10-23T03:23:31.337Z,98.32
2022-10-23T03:27:34.244Z,98.58
2022-10-23T03:31:38.542Z,98.46
2022-10-23T03:35:40.591Z,98.73
2022-10-23T03:39:42.960Z,98.63
2022-10-23T03:43:44.792Z,98.78
2022-10-23T03:47:46.609Z,98.78
2022-10-23T03:51:52.461Z,99.02
2022-10-23T03:55:55.819Z,99.03
2022-10-23T03:59:57.713Z,98.46
2022-10-23T04:04:03.549Z,98.41
2022-10-23T04:08:05.492Z,98.26
2022-10-23T04:12:08.908Z,98.30
2022-10-23T04:16:10.772Z,98.32
2022-10-23T04:20:12.768Z,98.62
2022-10-23T04:24:14.596Z,98.55
2022-10-23T04:28:16.479Z,98.42
2022-10-23T04:32:18.278Z,98.12
2022-10-23T04:36:20.217Z,98.31
2022-10-23T04:40:22.097Z,98.43
2022-10-23T04:44:26.168Z,98.00
2022-10-23T04:48:29.188Z,98.02
2022-10-23T04:52:57.847Z,98.33
2022-10-23T04:57:19.972Z,98.19
2022-10-23T05:01:30.227Z,98.23
2022-10-23T05:05:32.650Z,98.09
2022-10-23T05:09:42.455Z,98.14
2022-10-23T05:13:55.858Z,98.22
2022-10-23T05:18:13.891Z,98.25
2022-10-23T05:22:17.868Z,98.13
2022-10-23T05:26:28.925Z,97.84
2022-10-23T05:30:32.602Z,97.76
2022-10-23T05:34:37.931Z,97.70
2022-10-23T05:38:40.314Z,97.94
2022-10-23T05:42:49.178Z,98.12
2022-10-23T05:46:55.581Z,97.92
2022-10-23T05:51:38.743Z,98.03
2022-10-23T05:56:04.272Z,98.07
2022-10-23T06:00:18.139Z,98.32
2022-10-23T06:04:28.400Z,98.51
2022-10-23T06:08:51.435Z,98.23
2022-10-23T06:12:55.326Z,98.19
2022-10-23T06:16:57.271Z,98.08
2022-10-23T06:21:01.180Z,97.77
2022-10-23T06:25:04.091Z,97.77
2022-10-23T06:29:06.761Z,97.88
2022-10-23T06:33:08.638Z,98.02
2022-10-23T06:37:10.790Z,98.03
2022-10-23T06:41:20.300Z,97.81
2022-10-23T06:45:29.593Z,97.55
2022-10-23T06:49:57.389Z,97.55
2022-10-23T06:53:59.401Z,97.47
2022-10-23T06:58:30.868Z,97.41
2022-10-23T07:02:36.968Z,97.49
2022-10-23T07:06:38.993Z,97.29
2022-10-23T07:10:44.830Z,97.61
2022-10-23T07:14:47.246Z,97.54
2022-10-23T07:19:00.573Z,97.60
2022-10-23T07:23:02.450Z,97.66
2022-10-23T07:27:10.280Z,97.71
2022-10-23T07:31:16.068Z,97.60
2022-10-23T07:35:41.272Z,97.52
2022-10-23T07:39:48.881Z,97.64
2022-10-23T07:43:50.749Z,97.61
2022-10-23T07:47:52.682Z,97.22
2022-10-23T07:51:58.273Z,97.40
2022-10-23T07:56:12.191Z,97.18
2022-10-23T08:00:34.065Z,96.82
2022-10-23T08:04:43.230Z,96.92
2022-10-23T08:09:08.097Z,97.00
2022-10-23T08:13:13.707Z,97.06
2022-10-23T08:17:28.265Z,96.77
2022-10-23T08:21:56.834Z,96.48
2022-10-23T08:26:00.794Z,96.38
2022-10-23T08:30:05.139Z,96.19
2022-10-23T08:34:07.166Z,96.09
2022-10-23T08:38:10.757Z,96.23
2022-10-23T08:42:22.819Z,96.31
2022-10-23T08:46:28.139Z,95.70
2022-10-23T08:51:05.811Z,95.35
2022-10-23T08:55:26.118Z,95.28
2022-10-23T08:59:40.008Z,95.57
2022-10-23T09:03:43.200Z,95.49
2022-10-23T09:07:53.993Z,95.17
2022-10-23T09:11:55.833Z,94.63
2022-10-23T09:16:46.953Z,94.45
2022-10-23T09:20:49.689Z,94.53
2022-10-23T09:24:53.811Z,94.79
2022-10-23T09:29:14.465Z,94.90
2022-10-23T09:33:17.735Z,94.89
2022-10-23T09:37:26.093Z,94.83
2022-10-23T09:41:34.566Z,94.84
2022-10-23T09:45:38.652Z,94.67
2022-10-23T09:49:48.902Z,94.32
2022-10-23T09:53:50.558Z,94.49
2022-10-23T09:57:54.450Z,94.56
2022-10-23T10:02:00.002Z,94.40
2022-10-23T10:06:30.961Z,94.06
2022-10-23T10:10:43.608Z,93.67
2022-10-23T10:15:11.174Z,93.73
2022-10-23T10:19:28.414Z,93.33
2022-10-23T10:23:40.069Z,93.24
2022-10-23T10:28:13.019Z,92.63
2022-10-23T10:32:44.321Z,92.15
2022-10-23T10:36:51.426Z,92.00
2022-10-23T10:41:18.310Z,91.79
2022-10-23T10:45:33.907Z,91.83
2022-10-23T10:50:02.210Z,91.89
2022-10-23T10:54:27.926Z,91.68
2022-10-23T10:58:47.778Z,91.88
2022-10-23T11:02:57.365Z,91.57
2022-10-23T11:07:06.752Z,91.19
2022-10-23T11:11:20.971Z,91.03
2022-10-23T11:15:34.212Z,90.43
2022-10-23T11:19:43.131Z,89.87
2022-10-23T11:24:06.583Z,89.94
2022-10-23T11:28:23.900Z,89.69
2022-10-23T11:33:06.624Z,89.46
2022-10-23T11:37:08.918Z,89.18
2022-10-23T11:41:26.737Z,89.06
2022-10-23T11:45:37.718Z,88.88
2022-10-23T11:49:39.633Z,88.95
2022-10-23T11:53:41.579Z,89.28
2022-10-23T11:58:09.157Z,88.43
2022-10-23T12:02:24.062Z,88.31
2022-10-23T12:06:48.331Z,88.54
2022-10-23T12:10:52.451Z,88.62
2022-10-23T12:15:18.402Z,88.67
2022-10-23T12:19:23.166Z,88.42
2022-10-23T12:23:50.145Z,88.26
2022-10-23T12:28:45.618Z,88.23
2022-10-23T12:32:54.779Z,88.23
2022-10-23T12:37:14.744Z,88.15
2022-10-23T12:41:28.128Z,87.90
2022-10-23T12:45:36.391Z,87.74
2022-10-23T12:49:38.137Z,87.22
2022-10-23T12:53:40.110Z,87.24
2022-10-23T12:57:43.866Z,87.12
2022-10-23T13:01:50.445Z,87.02
2022-10-23T13:05:58.285Z,86.89
2022-10-23T13:10:01.388Z,86.90
2022-10-23T13:14:14.155Z,86.91
2022-10-23T13:18:17.152Z,86.59
2022-10-23T13:22:21.885Z,86.51
2022-10-23T13:26:35.495Z,86.53
2022-10-23T13:30:42.333Z,86.61
2022-10-23T13:35:03.552Z,86.31
2022-10-23T13:39:09.268Z,86.19
2022-10-23T13:43:15.973Z,86.12
2022-10-23T13:47:18.110Z,86.26
2022-10-23T13:51:28.715Z,86.58
2022-10-23T13:55:31.203Z,86.51
2022-10-23T13:59:33.112Z,86.48
2022-10-23T14:03:35.024Z,86.48
2022-10-23T14:07:39.297Z,86.40
2022-10-23T14:11:41.244Z,86.55
2022-10-23T14:15:43.077Z,86.69
2022-10-23T14:19:45.376Z,86.54
2022-10-23T14:23:48.976Z,86.29
2022-10-23T14:27:50.929Z,86.24
2022-10-23T14:31:53.455Z,86.10
2022-10-23T14:35:55.363Z,85.90
2022-10-23T14:39:57.398Z,85.97
2022-10-23T14:43:59.368Z,85.66
2022-10-23T14:48:02.069Z,85.54
2022-10-23T14:52:04.633Z,85.37
2022-10-23T14:56:06.896Z,85.47
2022-10-23T15:00:09.504Z,85.47
2022-10-23T15:04:11.472Z,85.35
2022-10-23T15:08:13.488Z,85.56
2022-10-23T15:12:15.459Z,85.74
2022-10-23T15:16:17.912Z,85.84
2022-10-23T15:20:19.857Z,85.98
2022-10-23T15:24:22.083Z,86.00
2022-10-23T15:28:24.658Z,86.06
2022-10-23T15:32:26.556Z,86.12
2022-10-23T15:36:28.487Z,86.08
2022-10-23T15:40:30.326Z,86.12
2022-10-23T15:44:33.386Z,86.16
2022-10-23T15:48:35.292Z,85.99
2022-10-23T15:52:37.220Z,85.90
2022-10-23T15:56:39.201Z,85.89
2022-10-23T16:00:41.086Z,85.73
2022-10-23T16:04:42.927Z,85.26
2022-10-23T16:08:46.146Z,85.16
2022-10-23T16:12:48.405Z,85.38
2022-10-23T16:16:50.885Z,85.58
2022-10-23T16:20:55.131Z,85.87
2022-10-23T16:24:57.075Z,85.77
2022-10-23T16:29:05.268Z,86.08
2022-10-23T16:33:07.516Z,86.26
2022-10-23T16:37:09.518Z,86.48
2022-10-23T16:41:35.584Z,86.67
2022-10-23T16:45:39.291Z,86.87
2022-10-23T16:49:41.428Z,87.05
2022-10-23T16:53:44.219Z,87.18
2022-10-23T16:57:46.165Z,87.46
2022-10-23T17:01:48.202Z,87.90
2022-10-23T17:05:50.721Z,88.02
2022-10-23T17:09:52.575Z,87.41
2022-10-23T17:14:11.625Z,86.59
2022-10-23T17:18:13.546Z,86.33
2022-10-23T17:22:15.837Z,86.38
2022-10-23T17:26:21.339Z,86.28
2022-10-23T17:30:23.323Z,86.27
2022-10-23T17:34:25.369Z,86.27
2022-10-23T17:38:27.239Z,86.41
2022-10-23T17:42:29.176Z,86.93
2022-10-23T17:46:31.256Z,86.92
2022-10-23T17:50:33.217Z,86.97
2022-10-23T17:54:35.801Z,87.42
2022-10-23T17:58:37.880Z,88.00
2022-10-23T18:02:39.834Z,87.83
2022-10-23T18:06:50.727Z,87.21
2022-10-23T18:10:52.723Z,87.01
2022-10-23T18:14:55.862Z,86.62
2022-10-23T18:18:59.623Z,86.46
2022-10-23T18:23:01.494Z,86.48
2022-10-23T18:27:03.488Z,86.72
2022-10-23T18:31:08.128Z,86.53
2022-10-23T18:35:10.023Z,86.50
2022-10-23T18:39:15.281Z,87.43
2022-10-23T18:43:31.300Z,88.01
2022-10-23T18:47:39.143Z,87.97
2022-10-23T18:51:41.349Z,87.54
2022-10-23T18:55:51.337Z,87.33
2022-10-23T18:59:55.980Z,87.48
2022-10-23T19:03:59.618Z,87.27
2022-10-23T19:08:01.921Z,87.11
2022-10-23T19:12:05.556Z,87.65
2022-10-23T19:16:16.191Z,87.44
2022-10-23T19:20:20.725Z,87.02
2022-10-23T19:24:29.127Z,87.24
2022-10-23T19:28:37.582Z,87.66
2022-10-23T19:32:41.565Z,87.90
2022-10-23T19:36:43.810Z,87.09
2022-10-23T19:40:45.792Z,87.00
2022-10-23T19:44:47.829Z,87.34
2022-10-23T19:48:49.813Z,87.54
2022-10-23T19:52:51.796Z,88.26
2022-10-23T19:56:55.623Z,87.89
2022-10-23T20:00:57.801Z,87.57
2022-10-23T20:04:59.999Z,86.73
2022-10-23T20:09:07.489Z,86.39
2022-10-23T20:13:19.326Z,87.15
2022-10-23T20:17:22.808Z,87.92
2022-10-23T20:21:25.139Z,87.71
2022-10-23T20:25:27.114Z,87.61
2022-10-23T20:29:29.407Z,87.46
2022-10-23T20:33:31.400Z,87.02
2022-10-23T20:37:33.335Z,87.24
2022-10-23T20:41:36.843Z,87.12
2022-10-23T20:45:38.790Z,87.66
2022-10-23T20:49:40.749Z,86.96
2022-10-23T20:53:43.934Z,86.61
2022-10-23T20:57:46.349Z,86.78
2022-10-23T21:01:50.816Z,87.61
2022-10-23T21:05:52.894Z,87.54
2022-10-23T21:09:55.208Z,87.87
2022-10-23T21:13:59.503Z,88.39
2022-10-23T21:18:08.019Z,88.41
2022-10-23T21:22:21.417Z,88.11
2022-10-23T21:26:24.181Z,88.10
2022-10-23T21:30:26.119Z,87.99
2022-10-23T21:34:28.515Z,87.61
2022-10-23T21:38:30.542Z,87.91
2022-10-23T21:42:33.191Z,88.32
2022-10-23T21:46:36.761Z,88.09
2022-10-23T21:50:38.925Z,87.76
2022-10-23T21:54:41.001Z,87.42
2022-10-23T21:58:43.039Z,87.62
2022-10-23T22:02:45.506Z,87.91
2022-10-23T22:06:49.501Z,87.53
2022-10-23T22:10:51.420Z,87.60
2022-10-23T22:14:53.351Z,88.19
2022-10-23T22:18:55.333Z,88.05
2022-10-23T22:22:57.409Z,88.02
2022-10-23T22:26:59.433Z,87.92
2022-10-23T22:31:01.759Z,88.00
2022-10-23T22:35:04.043Z,88.32
2022-10-23T22:39:08.189Z,88.48
2022-10-23T22:43:10.161Z,88.55
2022-10-23T22:47:12.148Z,88.15
2022-10-23T22:51:17.213Z,87.66
2022-10-23T22:55:19.177Z,88.38
2022-10-23T22:59:21.135Z,88.18
2022-10-23T23:03:23.102Z,88.37
2022-10-23T23:07:25.144Z,88.51
2022-10-23T23:11:27.955Z,88.54
2022-10-23T23:15:30.148Z,88.40
2022-10-23T23:19:32.676Z,87.67
2022-10-23T23:23:34.691Z,88.05
2022-10-23T23:27:36.767Z,88.59
2022-10-23T23:31:39.163Z,88.70
2022-10-23T23:35:43.478Z,89.06
2022-10-23T23:39:45.513Z,89.16
2022-10-23T23:43:48.225Z,89.04
2022-10-23T23:47:50.171Z,88.16
2022-10-23T23:51:52.213Z,88.98
2022-10-23T23:55:54.304Z,89.14
2022-10-23T23:59:56.510Z,89.00
